createdAt,value
2022-09-20T00:00:13.393Z,2.47
2022-09-20T00:02:41.436Z,1.48
2022-09-20T00:05:10.600Z,4.43
2022-09-20T00:07:38.656Z,1.75
2022-09-20T00:10:07.327Z,2.30
2022-09-20T00:12:35.282Z,1.58
2022-09-20T00:15:05.037Z,1.48
2022-09-20T00:17:33.000Z,2.22
2022-09-20T00:20:00.963Z,4.50
2022-09-20T00:22:28.909Z,1.60
2022-09-20T00:24:56.897Z,1.55
2022-09-20T00:27:24.839Z,1.42
2022-09-20T00:29:53.813Z,2.90
2022-09-20T00:32:23.151Z,2.83
2022-09-20T00:35:08.108Z,2.17
2022-09-20T00:37:36.725Z,2.45
2022-09-20T00:40:06.034Z,1.73
2022-09-20T00:42:34.434Z,1.90
2022-09-20T00:45:03.531Z,1.95
2022-09-20T00:47:40.748Z,3.42
2022-09-20T00:50:18.870Z,2.80
2022-09-20T00:52:49.207Z,1.38
2022-09-20T00:55:17.821Z,1.30
2022-09-20T00:57:47.568Z,0.80
2022-09-20T01:00:16.443Z,1.92
2022-09-20T01:02:48.988Z,2.30
2022-09-20T01:05:19.751Z,1.13
2022-09-20T01:07:51.404Z,2.08
2022-09-20T01:10:20.367Z,3.42
2022-09-20T01:12:51.111Z,0.98
2022-09-20T01:15:19.946Z,3.10
2022-09-20T01:17:53.184Z,1.65
2022-09-20T01:20:24.358Z,1.38
2022-09-20T01:23:36.053Z,2.38
2022-09-20T01:26:46.515Z,0.85
2022-09-20T01:29:24.398Z,1.63
2022-09-20T01:31:55.876Z,1.42
2022-09-20T01:34:29.600Z,1.35
2022-09-20T01:37:07.639Z,1.08
2022-09-20T01:39:46.605Z,0.63
2022-09-20T01:42:15.630Z,1.10
2022-09-20T01:44:58.684Z,1.63
2022-09-20T01:47:36.168Z,1.38
2022-09-20T01:50:13.222Z,0.93
2022-09-20T01:53:06.534Z,0.90
2022-09-20T01:56:07.289Z,1.58
2022-09-20T01:59:23.588Z,4.43
2022-09-20T02:02:47.946Z,1.23
2022-09-20T02:05:43.508Z,0.40
2022-09-20T02:08:34.408Z,4.63
2022-09-20T02:11:15.460Z,0.80
2022-09-20T02:14:05.261Z,0.93
2022-09-20T02:16:51.415Z,3.15
2022-09-20T02:20:01.010Z,0.70
2022-09-20T02:25:15.687Z,0.73
2022-09-20T02:27:59.968Z,1.23
2022-09-20T02:30:45.082Z,0.88
2022-09-20T02:33:29.731Z,2.45
2022-09-20T02:36:17.055Z,2.10
2022-09-20T02:38:58.512Z,1.58
2022-09-20T02:41:51.169Z,1.13
2022-09-20T02:44:29.543Z,0.80
2022-09-20T02:47:07.776Z,0.70
2022-09-20T02:49:46.597Z,1.25
2022-09-20T02:52:27.027Z,0.70
2022-09-20T02:55:01.516Z,1.83
2022-09-20T02:57:43.605Z,1.55
2022-09-20T03:00:19.668Z,1.10
2022-09-20T03:03:01.275Z,1.33
2022-09-20T03:05:38.053Z,1.85
2022-09-20T03:08:21.874Z,2.08
2022-09-20T03:10:57.571Z,5.60
2022-09-20T03:13:40.886Z,0.88
2022-09-20T03:16:18.088Z,1.95
2022-09-20T03:18:55.896Z,1.75
2022-09-20T03:21:34.990Z,2.05
2022-09-20T03:24:15.292Z,0.90
2022-09-20T03:26:53.933Z,2.05
2022-09-20T03:29:35.367Z,1.30
2022-09-20T03:32:16.693Z,1.63
2022-09-20T03:34:58.910Z,1.05
2022-09-20T03:37:43.350Z,3.38
2022-09-20T03:40:51.016Z,1.75
2022-09-20T03:43:33.244Z,1.05
2022-09-20T03:46:17.247Z,1.67
2022-09-20T03:49:10.036Z,2.88
2022-09-20T03:51:48.751Z,1.00
2022-09-20T03:54:51.900Z,4.35
2022-09-20T03:57:44.539Z,2.25
2022-09-20T04:00:31.129Z,0.80
2022-09-20T04:03:15.018Z,2.83
2022-09-20T04:05:54.921Z,2.15
2022-09-20T04:08:40.227Z,2.30
2022-09-20T04:11:17.969Z,4.35
2022-09-20T04:13:55.924Z,2.42
2022-09-20T04:16:33.325Z,1.95
2022-09-20T04:19:11.546Z,1.55
2022-09-20T04:21:44.802Z,1.63
2022-09-20T04:24:21.325Z,1.65
2022-09-20T04:26:52.764Z,1.48
2022-09-20T04:29:34.096Z,1.58
2022-09-20T04:32:13.557Z,1.70
2022-09-20T04:37:33.504Z,1.60
2022-09-20T04:40:14.926Z,2.10
2022-09-20T04:43:19.579Z,1.50
2022-09-20T04:46:20.447Z,0.75
2022-09-20T04:49:20.625Z,1.75
2022-09-20T04:52:27.851Z,2.00
2022-09-20T04:55:25.437Z,1.67
2022-09-20T04:58:28.965Z,0.80
2022-09-20T05:01:35.866Z,0.85
2022-09-20T05:04:51.160Z,0.90
2022-09-20T05:07:51.015Z,1.08
2022-09-20T05:10:58.709Z,3.03
2022-09-20T05:13:34.235Z,2.45
2022-09-20T05:16:07.160Z,1.95
2022-09-20T05:18:56.057Z,4.18
2022-09-20T05:21:44.569Z,2.67
2022-09-20T05:24:28.541Z,4.95
2022-09-20T05:27:14.239Z,3.13
2022-09-20T05:29:52.167Z,49.88
2022-09-20T05:32:26.068Z,12.65
2022-09-20T05:34:59.237Z,5.80
2022-09-20T05:37:50.033Z,3.65
2022-09-20T05:40:30.026Z,2.97
2022-09-20T05:43:07.379Z,4.18
2022-09-20T05:45:59.993Z,2.20
2022-09-20T05:48:38.567Z,3.05
2022-09-20T05:51:15.216Z,2.63
2022-09-20T05:54:09.821Z,3.42
2022-09-20T05:56:46.784Z,2.95
2022-09-20T05:59:26.492Z,2.80
2022-09-20T06:02:10.267Z,3.95
2022-09-20T06:04:46.619Z,2.33
2022-09-20T06:07:26.420Z,2.60
2022-09-20T06:10:31.397Z,3.47
2022-09-20T06:13:08.757Z,5.45
2022-09-20T06:15:49.157Z,2.85
2022-09-20T06:18:25.288Z,1.88
2022-09-20T06:21:05.073Z,1.05
2022-09-20T06:23:36.963Z,2.35
2022-09-20T06:26:11.764Z,2.58
2022-09-20T06:28:41.902Z,3.08
2022-09-20T06:31:12.007Z,2.60
2022-09-20T06:33:46.079Z,3.17
2022-09-20T06:36:35.294Z,3.58
2022-09-20T06:39:31.239Z,3.40
2022-09-20T06:42:01.007Z,4.03
2022-09-20T06:44:28.933Z,3.30
2022-09-20T06:46:56.895Z,2.28
2022-09-20T06:49:25.828Z,3.85
2022-09-20T06:51:55.724Z,4.03
2022-09-20T06:54:24.256Z,5.35
2022-09-20T06:56:52.758Z,3.47
2022-09-20T06:59:22.092Z,4.05
2022-09-20T07:01:50.181Z,4.97
2022-09-20T07:04:18.199Z,8.32
2022-09-20T07:06:46.248Z,5.07
2022-09-20T07:09:14.247Z,2.22
2022-09-20T07:11:43.062Z,6.22
2022-09-20T07:14:11.043Z,3.35
2022-09-20T07:16:40.627Z,6.38
2022-09-20T07:19:08.662Z,5.32
2022-09-20T07:21:36.616Z,5.07
2022-09-20T07:24:04.638Z,5.75
2022-09-20T07:26:33.203Z,8.40
2022-09-20T07:29:01.971Z,5.00
2022-09-20T07:31:30.644Z,2.55
2022-09-20T07:33:59.989Z,8.82
2022-09-20T07:36:29.234Z,4.30
2022-09-20T07:38:57.348Z,3.72
2022-09-20T07:41:30.403Z,3.25
2022-09-20T07:44:18.936Z,5.57
2022-09-20T07:46:48.515Z,3.47
2022-09-20T07:54:14.117Z,4.40
2022-09-20T07:56:42.568Z,4.63
2022-09-20T07:59:11.213Z,5.72
2022-09-20T08:01:40.030Z,2.77
2022-09-20T08:04:08.715Z,3.22
2022-09-20T08:06:39.162Z,2.93
2022-09-20T08:09:10.939Z,4.10
2022-09-20T08:11:40.092Z,4.53
2022-09-20T08:14:09.457Z,4.85
2022-09-20T08:16:40.434Z,4.22
2022-09-20T08:19:08.848Z,5.38
2022-09-20T08:21:38.852Z,3.53
2022-09-20T08:24:07.284Z,4.50
2022-09-20T08:26:36.582Z,3.83
2022-09-20T08:29:06.364Z,7.75
2022-09-20T08:31:38.010Z,7.88
2022-09-20T08:34:08.680Z,4.75
2022-09-20T08:36:41.064Z,8.43
2022-09-20T08:42:02.544Z,7.70
2022-09-20T08:44:35.893Z,8.25
2022-09-20T08:47:26.168Z,5.65
2022-09-20T08:49:57.291Z,1.90
2022-09-20T08:52:37.310Z,7.80
2022-09-20T08:55:16.897Z,6.53
2022-09-20T08:57:48.993Z,7.00
2022-09-20T09:00:20.604Z,3.80
2022-09-20T09:02:50.927Z,4.40
2022-09-20T09:05:33.217Z,3.67
2022-09-20T09:08:07.494Z,2.35
2022-09-20T09:10:45.383Z,3.20
2022-09-20T09:13:21.597Z,7.00
2022-09-20T09:15:55.175Z,7.50
2022-09-20T09:18:31.754Z,3.90
2022-09-20T09:21:04.188Z,6.07
2022-09-20T09:23:42.257Z,4.05
2022-09-20T09:26:19.597Z,5.93
2022-09-20T09:28:48.359Z,4.68
2022-09-20T09:31:25.729Z,5.25
2022-09-20T09:33:53.915Z,2.90
2022-09-20T09:36:25.272Z,7.00
2022-09-20T09:39:17.320Z,4.22
2022-09-20T09:41:46.358Z,2.78
2022-09-20T09:44:23.465Z,5.20
2022-09-20T09:46:53.520Z,2.97
2022-09-20T09:49:23.697Z,4.45
2022-09-20T09:52:13.034Z,5.43
2022-09-20T09:57:30.488Z,4.25
2022-09-20T10:00:20.457Z,4.65
2022-09-20T10:03:08.440Z,1.10
2022-09-20T10:05:45.789Z,3.72
2022-09-20T10:08:24.114Z,3.55
2022-09-20T10:11:07.674Z,1.88
2022-09-20T10:13:45.606Z,2.20
2022-09-20T10:16:21.593Z,3.10
2022-09-20T10:18:55.719Z,3.13
2022-09-20T10:21:42.010Z,6.97
2022-09-20T10:24:22.116Z,3.08
2022-09-20T10:27:07.483Z,3.63
2022-09-20T10:29:47.238Z,7.53
2022-09-20T10:32:28.263Z,2.67
2022-09-20T10:35:15.236Z,4.93
2022-09-20T10:38:01.362Z,7.63
2022-09-20T10:40:55.359Z,3.78
2022-09-20T10:43:35.399Z,4.38
2022-09-20T10:46:31.284Z,4.82
2022-09-20T10:49:06.037Z,2.63
2022-09-20T10:51:45.356Z,4.32
2022-09-20T10:54:27.036Z,3.72
2022-09-20T10:57:09.696Z,4.07
2022-09-20T10:59:48.197Z,3.20
2022-09-20T11:02:36.859Z,3.87
2022-09-20T11:05:26.752Z,5.55
2022-09-20T11:08:04.233Z,2.60
2022-09-20T11:10:37.657Z,2.72
2022-09-20T11:13:11.566Z,1.92
2022-09-20T11:15:46.970Z,3.45
2022-09-20T11:18:23.518Z,2.13
2022-09-20T11:20:58.844Z,2.05
2022-09-20T11:23:36.065Z,1.40
2022-09-20T11:26:11.552Z,1.92
2022-09-20T11:28:43.691Z,4.78
2022-09-20T11:31:23.535Z,3.20
2022-09-20T11:33:55.725Z,4.80
2022-09-20T11:36:29.429Z,1.58
2022-09-20T11:39:01.574Z,3.10
2022-09-20T11:41:31.070Z,3.15
2022-09-20T11:44:04.151Z,1.42
2022-09-20T11:46:36.780Z,2.58
2022-09-20T11:49:11.824Z,2.15
2022-09-20T11:52:07.618Z,2.47
2022-09-20T11:55:02.641Z,2.22
2022-09-20T11:57:31.438Z,1.90
2022-09-20T12:00:04.056Z,2.25
2022-09-20T12:02:37.204Z,2.08
2022-09-20T12:05:06.276Z,2.80
2022-09-20T12:07:39.610Z,1.23
2022-09-20T12:10:21.262Z,2.38
2022-09-20T12:12:55.837Z,0.82
2022-09-20T12:15:26.840Z,1.02
2022-09-20T12:18:33.072Z,0.60
2022-09-20T12:21:14.984Z,1.02
2022-09-20T12:24:23.669Z,2.55
2022-09-20T12:26:56.242Z,1.98
2022-09-20T12:30:09.300Z,1.17
2022-09-20T12:32:54.880Z,3.95
2022-09-20T12:35:56.921Z,1.40
2022-09-20T12:38:35.871Z,1.30
2022-09-20T12:41:16.983Z,3.25
2022-09-20T12:43:54.560Z,3.55
2022-09-20T12:46:32.251Z,3.83
2022-09-20T12:49:59.340Z,2.13
2022-09-20T12:53:00.604Z,2.08
2022-09-20T12:55:39.907Z,2.40
2022-09-20T12:58:34.282Z,1.65
2022-09-20T13:01:43.108Z,2.95
2022-09-20T13:04:56.630Z,2.13
2022-09-20T13:07:50.577Z,2.20
2022-09-20T13:10:37.523Z,2.13
2022-09-20T13:13:17.259Z,3.15
2022-09-20T13:15:51.659Z,1.85
2022-09-20T13:18:20.274Z,3.60
2022-09-20T13:20:48.306Z,2.30
2022-09-20T13:23:22.673Z,4.15
2022-09-20T13:25:52.295Z,2.33
2022-09-20T13:28:38.408Z,2.35
2022-09-20T13:31:25.999Z,3.80
2022-09-20T13:33:54.674Z,2.38
2022-09-20T13:36:29.717Z,2.33
2022-09-20T13:38:58.891Z,2.13
2022-09-20T13:41:32.515Z,3.78
2022-09-20T13:44:01.991Z,3.15
2022-09-20T13:49:13.752Z,2.60
2022-09-20T13:51:41.742Z,2.45
2022-09-20T13:54:22.432Z,3.00
2022-09-20T13:56:52.433Z,2.47
2022-09-20T13:59:20.885Z,2.50
2022-09-20T14:01:54.435Z,1.52
2022-09-20T14:04:25.992Z,2.40
2022-09-20T14:06:56.277Z,1.67
2022-09-20T14:09:29.741Z,2.83
2022-09-20T14:12:00.114Z,1.35
2022-09-20T14:14:28.848Z,1.85
2022-09-20T14:16:58.822Z,2.90
2022-09-20T14:19:32.491Z,1.70
2022-09-20T14:22:04.488Z,1.58
2022-09-20T14:24:35.345Z,1.60
2022-09-20T14:27:18.101Z,1.95
2022-09-20T14:29:47.473Z,1.70
2022-09-20T14:32:27.593Z,1.58
2022-09-20T14:35:02.679Z,3.08
2022-09-20T14:37:33.453Z,4.45
2022-09-20T14:40:04.209Z,1.20
2022-09-20T14:42:38.042Z,1.90
2022-09-20T14:45:07.225Z,2.17
2022-09-20T14:47:39.877Z,2.45
2022-09-20T14:50:24.942Z,2.22
2022-09-20T14:53:21.444Z,1.90
2022-09-20T14:56:01.500Z,2.72
2022-09-20T14:58:31.082Z,1.33
2022-09-20T15:01:03.487Z,2.63
2022-09-20T15:03:34.316Z,2.55
2022-09-20T15:06:02.313Z,1.95
2022-09-20T15:08:30.584Z,2.00
2022-09-20T15:11:00.450Z,3.80
2022-09-20T15:13:29.748Z,4.25
2022-09-20T15:15:57.758Z,7.43
2022-09-20T15:18:28.357Z,2.92
2022-09-20T15:20:56.715Z,2.70
2022-09-20T15:23:25.169Z,1.27
2022-09-20T15:25:55.060Z,1.13
2022-09-20T15:28:24.016Z,1.38
2022-09-20T15:30:53.487Z,1.95
2022-09-20T15:35:50.297Z,1.83
2022-09-20T15:38:19.955Z,1.52
2022-09-20T15:40:49.335Z,1.35
2022-09-20T15:43:21.763Z,2.13
2022-09-20T15:45:51.447Z,2.38
2022-09-20T15:48:23.088Z,2.03
2022-09-20T15:51:02.914Z,6.35
2022-09-20T15:53:34.121Z,3.50
2022-09-20T15:56:03.483Z,4.45
2022-09-20T15:58:36.270Z,4.18
2022-09-20T16:01:06.954Z,1.92
2022-09-20T16:03:37.123Z,2.58
2022-09-20T16:06:07.232Z,4.60
2022-09-20T16:08:36.664Z,3.92
2022-09-20T16:11:05.717Z,2.10
2022-09-20T16:13:33.836Z,1.80
2022-09-20T16:16:03.140Z,2.45
2022-09-20T16:18:48.802Z,5.75
2022-09-20T16:21:20.168Z,2.42
2022-09-20T16:23:50.396Z,1.92
2022-09-20T16:26:21.423Z,1.67
2022-09-20T16:28:53.158Z,1.98
2022-09-20T16:31:35.963Z,2.88
2022-09-20T16:34:05.381Z,4.65
2022-09-20T16:36:34.821Z,4.10
2022-09-20T16:39:04.625Z,5.55
2022-09-20T16:41:32.586Z,5.75
2022-09-20T16:44:00.741Z,4.43
2022-09-20T16:46:32.796Z,8.07
2022-09-20T16:49:01.068Z,3.85
2022-09-20T16:51:34.053Z,1.52
2022-09-20T16:54:11.604Z,2.00
2022-09-20T16:56:41.077Z,2.13
2022-09-20T16:59:10.674Z,3.28
2022-09-20T17:04:08.306Z,4.72
2022-09-20T17:06:38.644Z,4.30
2022-09-20T17:09:08.761Z,4.53
2022-09-20T17:11:39.132Z,9.48
2022-09-20T17:14:10.029Z,31.40
2022-09-20T17:16:39.884Z,5.47
2022-09-20T17:19:09.584Z,4.15
2022-09-20T17:21:43.321Z,3.15
2022-09-20T17:24:14.105Z,2.13
2022-09-20T17:26:44.629Z,2.92
2022-09-20T17:29:15.175Z,4.22
2022-09-20T17:31:51.482Z,4.53
2022-09-20T17:34:22.586Z,4.22
2022-09-20T17:36:51.267Z,4.22
2022-09-20T17:39:20.719Z,8.85
2022-09-20T17:41:53.046Z,13.68
2022-09-20T17:44:21.137Z,7.80
2022-09-20T17:46:50.575Z,8.35
2022-09-20T17:51:48.983Z,5.35
2022-09-20T17:56:47.904Z,5.95
2022-09-20T17:59:17.261Z,6.20
2022-09-20T18:01:46.969Z,4.50
2022-09-20T18:06:47.235Z,6.07
2022-09-20T18:09:17.486Z,4.35
2022-09-20T18:11:49.471Z,5.80
2022-09-20T18:14:21.100Z,5.63
2022-09-20T18:16:49.171Z,5.03
2022-09-20T18:19:17.226Z,5.22
2022-09-20T18:21:45.429Z,6.20
2022-09-20T18:24:13.708Z,6.32
2022-09-20T18:26:41.981Z,6.10
2022-09-20T18:29:12.878Z,7.18
2022-09-20T18:31:43.190Z,8.18
2022-09-20T18:34:15.319Z,11.48
2022-09-20T18:36:43.473Z,10.32
2022-09-20T18:39:11.480Z,9.27
2022-09-20T18:41:41.144Z,8.65
2022-09-20T18:44:09.192Z,7.97
2022-09-20T18:46:39.093Z,8.68
2022-09-20T18:49:09.298Z,12.93
2022-09-20T18:51:40.045Z,10.68
2022-09-20T18:54:10.087Z,11.50
2022-09-20T18:56:39.404Z,9.95
2022-09-20T18:59:09.774Z,10.90
2022-09-20T19:02:08.556Z,9.55
2022-09-20T19:04:52.482Z,9.35
2022-09-20T19:07:29.368Z,10.77
2022-09-20T19:10:05.064Z,7.75
2022-09-20T19:12:40.861Z,7.53
2022-09-20T19:15:29.195Z,8.70
2022-09-20T19:18:14.132Z,10.20
2022-09-20T19:20:49.591Z,9.80
2022-09-20T19:23:36.313Z,7.45
2022-09-20T19:26:09.570Z,7.20
2022-09-20T19:28:38.068Z,7.93
2022-09-20T19:31:06.776Z,6.75
2022-09-20T19:33:36.887Z,6.72
2022-09-20T19:36:06.218Z,8.13
2022-09-20T19:38:42.555Z,8.30
2022-09-20T19:41:27.322Z,6.40
2022-09-20T19:44:11.017Z,7.15
2022-09-20T19:46:51.269Z,7.68
2022-09-20T19:49:29.019Z,9.00
2022-09-20T19:51:57.887Z,9.40
2022-09-20T19:54:26.460Z,5.28
2022-09-20T19:56:56.441Z,4.28
2022-09-20T19:59:26.984Z,5.03
2022-09-20T20:01:56.416Z,5.72
2022-09-20T20:04:26.749Z,6.18
2022-09-20T20:07:05.959Z,6.22
2022-09-20T20:09:41.368Z,5.88
2022-09-20T20:12:15.504Z,8.73
2022-09-20T20:14:53.078Z,10.70
2022-09-20T20:17:34.515Z,9.60
2022-09-20T20:20:16.380Z,7.80
2022-09-20T20:23:23.724Z,6.82
2022-09-20T20:26:00.037Z,9.98
2022-09-20T20:28:28.135Z,10.02
2022-09-20T20:30:59.781Z,9.20
2022-09-20T20:33:28.140Z,10.68
2022-09-20T20:35:59.849Z,11.63
2022-09-20T20:38:30.105Z,9.32
2022-09-20T20:41:04.385Z,12.05
2022-09-20T20:43:32.819Z,10.80
2022-09-20T20:46:00.875Z,9.40
2022-09-20T20:48:28.925Z,10.07
2022-09-20T20:51:07.902Z,9.32
2022-09-20T20:53:37.387Z,9.88
2022-09-20T20:56:08.220Z,9.45
2022-09-20T20:58:37.847Z,8.10
2022-09-20T21:01:11.261Z,8.70
2022-09-20T21:03:40.073Z,11.82
2022-09-20T21:06:10.630Z,7.30
2022-09-20T21:08:40.466Z,8.38
2022-09-20T21:11:11.394Z,9.25
2022-09-20T21:13:39.895Z,12.50
2022-09-20T21:16:10.154Z,7.40
2022-09-20T21:18:39.577Z,9.35
2022-09-20T21:21:16.897Z,9.82
2022-09-20T21:23:46.823Z,9.93
2022-09-20T21:26:16.035Z,10.98
2022-09-20T21:28:45.750Z,11.60
2022-09-20T21:33:43.575Z,9.90
2022-09-20T21:36:14.641Z,14.35
2022-09-20T21:38:43.736Z,13.82
2022-09-20T21:41:13.569Z,15.88
2022-09-20T21:43:43.169Z,13.98
2022-09-20T21:46:15.528Z,12.63
2022-09-20T21:48:43.582Z,13.25
2022-09-20T21:51:15.665Z,12.88
2022-09-20T21:53:43.848Z,12.27
2022-09-20T21:56:13.482Z,12.68
2022-09-20T21:58:41.968Z,14.90
2022-09-20T22:01:11.831Z,13.07
2022-09-20T22:03:42.591Z,11.13
2022-09-20T22:06:13.036Z,8.75
2022-09-20T22:08:48.657Z,8.90
2022-09-20T22:11:17.554Z,8.85
2022-09-20T22:13:46.929Z,6.93
2022-09-20T22:16:17.362Z,8.02
2022-09-20T22:18:46.071Z,9.30
2022-09-20T22:21:16.585Z,6.95
2022-09-20T22:23:46.092Z,5.63
2022-09-20T22:28:43.040Z,7.63
2022-09-20T22:31:13.792Z,13.20
2022-09-20T22:33:43.266Z,12.65
2022-09-20T22:38:40.540Z,10.55
2022-09-20T22:41:10.744Z,14.63
2022-09-20T22:43:39.748Z,10.68
2022-09-20T22:46:09.975Z,9.18
2022-09-20T22:48:38.373Z,8.68
2022-09-20T22:51:08.655Z,14.73
2022-09-20T22:53:37.055Z,8.05
2022-09-20T22:56:06.804Z,8.38
2022-09-20T22:58:37.884Z,12.07
2022-09-20T23:01:08.925Z,10.77
2022-09-20T23:03:37.222Z,6.63
2022-09-20T23:06:05.694Z,9.07
2022-09-20T23:08:34.221Z,7.18
2022-09-20T23:11:06.268Z,6.80
2022-09-20T23:13:35.903Z,6.88
2022-09-20T23:18:38.935Z,6.22
2022-09-20T23:21:07.404Z,5.28
2022-09-20T23:23:36.496Z,5.55
2022-09-20T23:26:07.474Z,6.65
2022-09-20T23:28:37.911Z,6.10
2022-09-20T23:31:07.979Z,6.05
2022-09-20T23:33:36.289Z,7.93
2022-09-20T23:36:08.810Z,4.65
2022-09-20T23:38:36.942Z,6.47
2022-09-20T23:41:05.911Z,5.88
2022-09-20T23:43:35.269Z,3.60
2022-09-20T23:46:05.588Z,4.90
2022-09-20T23:48:36.049Z,5.75
2022-09-20T23:51:05.069Z,6.30
2022-09-20T23:53:33.519Z,9.02
2022-09-20T23:56:03.574Z,5.93
2022-09-20T23:58:31.563Z,6.50
